sensor_id;sensor_type;location;lat;lon;timestamp;temperature;humidity
32612;DHT22;19030;49.478;8.986;2024-01-16T00:00:51;-0.60;99.90
32612;DHT22;19030;49.478;8.986;2024-01-16T00:02:51;-0.60;99.90
32612;DHT22;19030;49.478;8.986;2024-01-16T00:04:52;-0.60;99.90
32612;DHT22;19030;49.478;8.986;2024-01-16T00:06:53;-0.70;99.90
32612;DHT22;19030;49.478;8.986;2024-01-16T00:08:53;-0.70;99.90
32612;DHT22;19030;49.478;8.986;2024-01-16T00:10:54;-0.70;99.90
32612;DHT22;19030;49.478;8.986;2024-01-16T00:12:54;-0.70;99.90
32612;DHT22;19030;49.478;8.986;2024-01-16T00:14:55;-0.70;99.90
32612;DHT22;19030;49.478;8.986;2024-01-16T00:16:56;-0.80;99.90
32612;DHT22;19030;49.478;8.986;2024-01-16T00:18:56;-0.80;99.90
32612;DHT22;19030;49.478;8.986;2024-01-16T00:20:57;-0.80;99.90
32612;DHT22;19030;49.478;8.986;2024-01-16T00:22:57;-0.80;99.90
32612;DHT22;19030;49.478;8.986;2024-01-16T00:24:58;-0.80;99.90
32612;DHT22;19030;49.478;8.986;2024-01-16T00:26:58;-0.90;99.90
32612;DHT22;19030;49.478;8.986;2024-01-16T00:28:59;-0.90;99.90
32612;DHT22;19030;49.478;8.986;2024-01-16T00:31:00;-0.90;99.90
32612;DHT22;19030;49.478;8.986;2024-01-16T00:33:00;-1.00;99.90
32612;DHT22;19030;49.478;8.986;2024-01-16T00:35:01;-1.00;99.90
32612;DHT22;19030;49.478;8.986;2024-01-16T00:37:01;-1.10;99.90
32612;DHT22;19030;49.478;8.986;2024-01-16T00:39:02;-1.10;99.90
32612;DHT22;19030;49.478;8.986;2024-01-16T00:41:03;-1.10;99.90
32612;DHT22;19030;49.478;8.986;2024-01-16T00:43:04;-1.20;99.90
32612;DHT22;19030;49.478;8.986;2024-01-16T00:45:05;-1.20;99.90
32612;DHT22;19030;49.478;8.986;2024-01-16T00:47:05;-1.20;99.90
32612;DHT22;19030;49.478;8.986;2024-01-16T00:49:06;-1.20;99.90
32612;DHT22;19030;49.478;8.986;2024-01-16T00:51:08;-1.30;99.90
32612;DHT22;19030;49.478;8.986;2024-01-16T00:53:08;-1.30;99.90
32612;DHT22;19030;49.478;8.986;2024-01-16T00:55:09;-1.30;99.90
32612;DHT22;19030;49.478;8.986;2024-01-16T00:57:09;-1.30;99.90
32612;DHT22;19030;49.478;8.986;2024-01-16T00:59:10;-1.30;99.90
32612;DHT22;19030;49.478;8.986;2024-01-16T01:01:10;-1.40;99.90
32612;DHT22;19030;49.478;8.986;2024-01-16T01:03:11;-1.40;99.90
32612;DHT22;19030;49.478;8.986;2024-01-16T01:05:12;-1.40;99.90
32612;DHT22;19030;49.478;8.986;2024-01-16T01:07:13;-1.40;99.90
32612;DHT22;19030;49.478;8.986;2024-01-16T01:09:14;-1.30;99.90
32612;DHT22;19030;49.478;8.986;2024-01-16T01:11:15;-1.30;99.90
32612;DHT22;19030;49.478;8.986;2024-01-16T01:13:15;-1.30;99.90
32612;DHT22;19030;49.478;8.986;2024-01-16T01:15:16;-1.30;99.90
32612;DHT22;19030;49.478;8.986;2024-01-16T01:17:16;-1.20;99.90
32612;DHT22;19030;49.478;8.986;2024-01-16T01:19:17;-1.20;99.90
32612;DHT22;19030;49.478;8.986;2024-01-16T01:21:18;-1.20;99.90
32612;DHT22;19030;49.478;8.986;2024-01-16T01:23:18;-1.20;99.90
32612;DHT22;19030;49.478;8.986;2024-01-16T01:25:19;-1.10;99.90
32612;DHT22;19030;49.478;8.986;2024-01-16T01:27:19;-1.20;99.90
32612;DHT22;19030;49.478;8.986;2024-01-16T01:29:20;-1.20;99.90
32612;DHT22;19030;49.478;8.986;2024-01-16T01:31:20;-1.20;99.90
32612;DHT22;19030;49.478;8.986;2024-01-16T01:33:21;-1.20;99.90
32612;DHT22;19030;49.478;8.986;2024-01-16T01:35:21;-1.30;99.90
32612;DHT22;19030;49.478;8.986;2024-01-16T01:37:22;-1.40;99.90
32612;DHT22;19030;49.478;8.986;2024-01-16T01:39:23;-1.40;99.90
32612;DHT22;19030;49.478;8.986;2024-01-16T01:41:23;-1.50;99.90
32612;DHT22;19030;49.478;8.986;2024-01-16T01:43:24;-1.50;99.90
32612;DHT22;19030;49.478;8.986;2024-01-16T01:45:25;-1.50;99.90
32612;DHT22;19030;49.478;8.986;2024-01-16T01:47:26;-1.60;99.90
32612;DHT22;19030;49.478;8.986;2024-01-16T01:49:27;-1.60;99.90
32612;DHT22;19030;49.478;8.986;2024-01-16T01:51:28;-1.60;99.90
32612;DHT22;19030;49.478;8.986;2024-01-16T01:53:30;-1.60;99.90
32612;DHT22;19030;49.478;8.986;2024-01-16T01:55:31;-1.60;99.90
32612;DHT22;19030;49.478;8.986;2024-01-16T01:57:33;-1.70;99.90
32612;DHT22;19030;49.478;8.986;2024-01-16T01:59:34;-1.70;99.90
32612;DHT22;19030;49.478;8.986;2024-01-16T02:01:35;-1.70;99.90
32612;DHT22;19030;49.478;8.986;2024-01-16T02:03:40;-1.70;99.90
32612;DHT22;19030;49.478;8.986;2024-01-16T02:05:42;-1.70;99.90
32612;DHT22;19030;49.478;8.986;2024-01-16T02:07:43;-1.70;99.90
32612;DHT22;19030;49.478;8.986;2024-01-16T02:09:44;-1.70;99.90
32612;DHT22;19030;49.478;8.986;2024-01-16T02:11:44;-1.70;99.90
32612;DHT22;19030;49.478;8.986;2024-01-16T02:13:45;-1.70;99.90
32612;DHT22;19030;49.478;8.986;2024-01-16T02:15:46;-1.70;99.90
32612;DHT22;19030;49.478;8.986;2024-01-16T02:17:47;-1.70;99.90
32612;DHT22;19030;49.478;8.986;2024-01-16T02:19:48;-1.70;99.90
32612;DHT22;19030;49.478;8.986;2024-01-16T02:21:49;-1.70;99.90
32612;DHT22;19030;49.478;8.986;2024-01-16T02:23:51;-1.70;99.90
32612;DHT22;19030;49.478;8.986;2024-01-16T02:25:52;-1.70;99.90
32612;DHT22;19030;49.478;8.986;2024-01-16T02:27:53;-1.70;99.90
32612;DHT22;19030;49.478;8.986;2024-01-16T02:29:54;-1.80;99.90
32612;DHT22;19030;49.478;8.986;2024-01-16T02:31:54;-1.80;99.90
32612;DHT22;19030;49.478;8.986;2024-01-16T02:33:55;-1.80;99.90
32612;DHT22;19030;49.478;8.986;2024-01-16T02:35:55;-1.90;99.90
32612;DHT22;19030;49.478;8.986;2024-01-16T02:37:56;-1.90;99.90
32612;DHT22;19030;49.478;8.986;2024-01-16T02:39:56;-2.00;99.90
32612;DHT22;19030;49.478;8.986;2024-01-16T02:41:57;-2.00;99.90
32612;DHT22;19030;49.478;8.986;2024-01-16T02:43:58;-2.10;99.90
32612;DHT22;19030;49.478;8.986;2024-01-16T02:45:58;-2.20;99.90
32612;DHT22;19030;49.478;8.986;2024-01-16T02:47:59;-2.20;99.90
32612;DHT22;19030;49.478;8.986;2024-01-16T02:50:00;-2.20;99.90
32612;DHT22;19030;49.478;8.986;2024-01-16T02:52:00;-2.20;99.90
32612;DHT22;19030;49.478;8.986;2024-01-16T02:54:01;-2.20;99.90
32612;DHT22;19030;49.478;8.986;2024-01-16T02:56:02;-2.20;99.90
32612;DHT22;19030;49.478;8.986;2024-01-16T02:58:02;-2.30;99.90
32612;DHT22;19030;49.478;8.986;2024-01-16T03:00:04;-2.30;99.90
32612;DHT22;19030;49.478;8.986;2024-01-16T03:02:05;-2.40;99.90
32612;DHT22;19030;49.478;8.986;2024-01-16T03:04:05;-2.40;99.90
32612;DHT22;19030;49.478;8.986;2024-01-16T03:06:06;-2.50;99.90
32612;DHT22;19030;49.478;8.986;2024-01-16T03:08:07;-2.60;99.90
32612;DHT22;19030;49.478;8.986;2024-01-16T03:10:07;-2.60;99.90
32612;DHT22;19030;49.478;8.986;2024-01-16T03:12:08;-2.70;99.90
32612;DHT22;19030;49.478;8.986;2024-01-16T03:14:08;-2.70;99.90
32612;DHT22;19030;49.478;8.986;2024-01-16T03:16:12;-2.70;99.90
32612;DHT22;19030;49.478;8.986;2024-01-16T03:18:13;-2.70;99.90
32612;DHT22;19030;49.478;8.986;2024-01-16T03:20:13;-2.70;99.90
32612;DHT22;19030;49.478;8.986;2024-01-16T03:22:14;-2.70;99.90
32612;DHT22;19030;49.478;8.986;2024-01-16T03:24:14;-2.80;99.90
32612;DHT22;19030;49.478;8.986;2024-01-16T03:26:15;-2.80;99.90
32612;DHT22;19030;49.478;8.986;2024-01-16T03:28:15;-2.80;99.90
32612;DHT22;19030;49.478;8.986;2024-01-16T03:30:16;-2.70;99.90
32612;DHT22;19030;49.478;8.986;2024-01-16T03:32:17;-2.70;99.90
32612;DHT22;19030;49.478;8.986;2024-01-16T03:34:18;-2.70;99.90
32612;DHT22;19030;49.478;8.986;2024-01-16T03:36:18;-2.70;99.90
32612;DHT22;19030;49.478;8.986;2024-01-16T03:38:19;-2.70;99.90
32612;DHT22;19030;49.478;8.986;2024-01-16T03:40:19;-2.70;99.90
32612;DHT22;19030;49.478;8.986;2024-01-16T03:42:20;-2.80;99.90
32612;DHT22;19030;49.478;8.986;2024-01-16T03:44:21;-2.80;99.90
32612;DHT22;19030;49.478;8.986;2024-01-16T03:46:22;-2.80;99.90
32612;DHT22;19030;49.478;8.986;2024-01-16T03:48:22;-2.80;99.90
32612;DHT22;19030;49.478;8.986;2024-01-16T03:50:23;-2.60;99.90
32612;DHT22;19030;49.478;8.986;2024-01-16T03:52:23;-2.60;99.90
32612;DHT22;19030;49.478;8.986;2024-01-16T03:54:24;-2.50;99.90
32612;DHT22;19030;49.478;8.986;2024-01-16T03:56:26;-2.50;99.90
32612;DHT22;19030;49.478;8.986;2024-01-16T03:58:26;-2.60;99.90
32612;DHT22;19030;49.478;8.986;2024-01-16T04:00:27;-2.60;99.90
32612;DHT22;19030;49.478;8.986;2024-01-16T04:02:27;-2.50;99.90
32612;DHT22;19030;49.478;8.986;2024-01-16T04:04:28;-2.50;99.90
32612;DHT22;19030;49.478;8.986;2024-01-16T04:06:28;-2.50;99.90
32612;DHT22;19030;49.478;8.986;2024-01-16T04:08:30;-2.50;99.90
32612;DHT22;19030;49.478;8.986;2024-01-16T04:10:30;-2.40;99.90
32612;DHT22;19030;49.478;8.986;2024-01-16T04:12:31;-2.40;99.90
32612;DHT22;19030;49.478;8.986;2024-01-16T04:14:31;-2.40;99.90
32612;DHT22;19030;49.478;8.986;2024-01-16T04:16:32;-2.40;99.90
32612;DHT22;19030;49.478;8.986;2024-01-16T04:18:36;-2.40;99.90
32612;DHT22;19030;49.478;8.986;2024-01-16T04:20:40;-2.40;99.90
32612;DHT22;19030;49.478;8.986;2024-01-16T04:22:41;-2.40;99.90
32612;DHT22;19030;49.478;8.986;2024-01-16T04:24:42;-2.40;99.90
32612;DHT22;19030;49.478;8.986;2024-01-16T04:26:42;-2.40;99.90
32612;DHT22;19030;49.478;8.986;2024-01-16T04:28:43;-2.40;99.90
32612;DHT22;19030;49.478;8.986;2024-01-16T04:30:43;-2.40;99.90
32612;DHT22;19030;49.478;8.986;2024-01-16T04:32:44;-2.40;99.90
32612;DHT22;19030;49.478;8.986;2024-01-16T04:34:45;-2.40;99.90
32612;DHT22;19030;49.478;8.986;2024-01-16T04:36:45;-2.40;99.90
32612;DHT22;19030;49.478;8.986;2024-01-16T04:38:46;-2.50;99.90
32612;DHT22;19030;49.478;8.986;2024-01-16T04:40:47;-2.50;99.90
32612;DHT22;19030;49.478;8.986;2024-01-16T04:42:47;-2.60;99.90
32612;DHT22;19030;49.478;8.986;2024-01-16T04:44:48;-2.60;99.90
32612;DHT22;19030;49.478;8.986;2024-01-16T04:46:49;-2.70;99.90
32612;DHT22;19030;49.478;8.986;2024-01-16T04:48:49;-2.80;99.90
32612;DHT22;19030;49.478;8.986;2024-01-16T04:50:50;-2.80;99.90
32612;DHT22;19030;49.478;8.986;2024-01-16T04:52:51;-2.90;99.90
32612;DHT22;19030;49.478;8.986;2024-01-16T04:54:51;-2.90;99.90
32612;DHT22;19030;49.478;8.986;2024-01-16T04:56:53;-3.00;99.90
32612;DHT22;19030;49.478;8.986;2024-01-16T04:58:53;-3.10;99.90
32612;DHT22;19030;49.478;8.986;2024-01-16T05:00:54;-3.10;99.90
32612;DHT22;19030;49.478;8.986;2024-01-16T05:02:54;-3.20;99.90
32612;DHT22;19030;49.478;8.986;2024-01-16T05:04:55;-3.20;99.90
32612;DHT22;19030;49.478;8.986;2024-01-16T05:06:55;-3.20;99.90
32612;DHT22;19030;49.478;8.986;2024-01-16T05:08:56;-3.20;99.90
32612;DHT22;19030;49.478;8.986;2024-01-16T05:10:58;-3.30;99.90
32612;DHT22;19030;49.478;8.986;2024-01-16T05:12:58;-3.30;99.90
32612;DHT22;19030;49.478;8.986;2024-01-16T05:14:59;-3.30;99.90
32612;DHT22;19030;49.478;8.986;2024-01-16T05:16:59;-3.30;99.90
32612;DHT22;19030;49.478;8.986;2024-01-16T05:19:00;-3.30;99.90
32612;DHT22;19030;49.478;8.986;2024-01-16T05:21:01;-3.30;99.90
32612;DHT22;19030;49.478;8.986;2024-01-16T05:23:02;-3.30;99.90
32612;DHT22;19030;49.478;8.986;2024-01-16T05:25:03;-3.30;99.90
32612;DHT22;19030;49.478;8.986;2024-01-16T05:27:04;-3.30;99.90
32612;DHT22;19030;49.478;8.986;2024-01-16T05:29:09;-3.30;99.90
32612;DHT22;19030;49.478;8.986;2024-01-16T05:31:10;-3.40;99.90
32612;DHT22;19030;49.478;8.986;2024-01-16T05:33:10;-3.40;99.90
32612;DHT22;19030;49.478;8.986;2024-01-16T05:35:11;-3.40;99.90
32612;DHT22;19030;49.478;8.986;2024-01-16T05:37:12;-3.40;99.90
32612;DHT22;19030;49.478;8.986;2024-01-16T05:39:12;-3.40;99.90
32612;DHT22;19030;49.478;8.986;2024-01-16T05:41:13;-3.50;99.90
32612;DHT22;19030;49.478;8.986;2024-01-16T05:43:14;-3.50;99.90
32612;DHT22;19030;49.478;8.986;2024-01-16T05:45:15;-3.50;99.90
32612;DHT22;19030;49.478;8.986;2024-01-16T05:47:15;-3.50;99.90
32612;DHT22;19030;49.478;8.986;2024-01-16T05:49:17;-3.50;99.90
32612;DHT22;19030;49.478;8.986;2024-01-16T05:51:18;-3.60;99.90
32612;DHT22;19030;49.478;8.986;2024-01-16T05:53:18;-3.60;99.90
32612;DHT22;19030;49.478;8.986;2024-01-16T05:55:19;-3.60;99.90
32612;DHT22;19030;49.478;8.986;2024-01-16T05:57:21;-3.60;99.90
32612;DHT22;19030;49.478;8.986;2024-01-16T05:59:22;-3.60;99.90
32612;DHT22;19030;49.478;8.986;2024-01-16T06:01:22;-3.60;99.90
32612;DHT22;19030;49.478;8.986;2024-01-16T06:03:23;-3.60;99.90
32612;DHT22;19030;49.478;8.986;2024-01-16T06:05:24;-3.60;99.90
32612;DHT22;19030;49.478;8.986;2024-01-16T06:07:25;-3.60;99.90
32612;DHT22;19030;49.478;8.986;2024-01-16T06:09:26;-3.60;99.90
32612;DHT22;19030;49.478;8.986;2024-01-16T06:11:31;-3.60;99.90
32612;DHT22;19030;49.478;8.986;2024-01-16T06:13:31;-3.60;99.90
32612;DHT22;19030;49.478;8.986;2024-01-16T06:15:33;-3.60;99.90
32612;DHT22;19030;49.478;8.986;2024-01-16T06:17:34;-3.60;99.90
32612;DHT22;19030;49.478;8.986;2024-01-16T06:19:34;-3.60;99.90
32612;DHT22;19030;49.478;8.986;2024-01-16T06:21:35;-3.60;99.90
32612;DHT22;19030;49.478;8.986;2024-01-16T06:23:35;-3.60;99.90
32612;DHT22;19030;49.478;8.986;2024-01-16T06:25:36;-3.60;99.90
32612;DHT22;19030;49.478;8.986;2024-01-16T06:27:36;-3.50;99.90
32612;DHT22;19030;49.478;8.986;2024-01-16T06:29:37;-3.60;99.90
32612;DHT22;19030;49.478;8.986;2024-01-16T06:31:37;-3.50;99.90
32612;DHT22;19030;49.478;8.986;2024-01-16T06:33:38;-3.60;99.90
32612;DHT22;19030;49.478;8.986;2024-01-16T06:35:39;-3.50;99.90
32612;DHT22;19030;49.478;8.986;2024-01-16T06:37:39;-3.60;99.90
32612;DHT22;19030;49.478;8.986;2024-01-16T06:39:40;-3.60;99.90
32612;DHT22;19030;49.478;8.986;2024-01-16T06:41:41;-3.60;99.90
32612;DHT22;19030;49.478;8.986;2024-01-16T06:43:42;-3.60;99.90
32612;DHT22;19030;49.478;8.986;2024-01-16T06:45:43;-3.60;99.90
32612;DHT22;19030;49.478;8.986;2024-01-16T06:47:43;-3.60;99.90
32612;DHT22;19030;49.478;8.986;2024-01-16T06:49:44;-3.60;99.90
32612;DHT22;19030;49.478;8.986;2024-01-16T06:51:44;-3.60;99.90
32612;DHT22;19030;49.478;8.986;2024-01-16T06:53:45;-3.60;99.90
32612;DHT22;19030;49.478;8.986;2024-01-16T06:55:45;-3.60;99.90
32612;DHT22;19030;49.478;8.986;2024-01-16T06:57:46;-3.60;99.90
32612;DHT22;19030;49.478;8.986;2024-01-16T06:59:47;-3.60;99.90
32612;DHT22;19030;49.478;8.986;2024-01-16T07:01:48;-3.60;99.90
32612;DHT22;19030;49.478;8.986;2024-01-16T07:03:49;-3.60;99.90
32612;DHT22;19030;49.478;8.986;2024-01-16T07:05:49;-3.60;99.90
32612;DHT22;19030;49.478;8.986;2024-01-16T07:07:50;-3.50;99.90
32612;DHT22;19030;49.478;8.986;2024-01-16T07:09:50;-3.50;99.90
32612;DHT22;19030;49.478;8.986;2024-01-16T07:11:51;-3.50;99.90
32612;DHT22;19030;49.478;8.986;2024-01-16T07:13:51;-3.40;99.90
32612;DHT22;19030;49.478;8.986;2024-01-16T07:15:52;-3.40;99.90
32612;DHT22;19030;49.478;8.986;2024-01-16T07:17:52;-3.40;99.90
32612;DHT22;19030;49.478;8.986;2024-01-16T07:19:53;-3.40;99.90
32612;DHT22;19030;49.478;8.986;2024-01-16T07:21:53;-3.40;99.90
32612;DHT22;19030;49.478;8.986;2024-01-16T07:23:54;-3.40;99.90
32612;DHT22;19030;49.478;8.986;2024-01-16T07:25:55;-3.40;99.90
32612;DHT22;19030;49.478;8.986;2024-01-16T07:27:56;-3.40;99.90
32612;DHT22;19030;49.478;8.986;2024-01-16T07:29:56;-3.40;99.90
32612;DHT22;19030;49.478;8.986;2024-01-16T07:31:57;-3.30;99.90
32612;DHT22;19030;49.478;8.986;2024-01-16T07:33:58;-3.40;99.90
32612;DHT22;19030;49.478;8.986;2024-01-16T07:35:58;-3.30;99.90
32612;DHT22;19030;49.478;8.986;2024-01-16T07:37:59;-3.30;99.90
32612;DHT22;19030;49.478;8.986;2024-01-16T07:39:59;-3.30;99.90
32612;DHT22;19030;49.478;8.986;2024-01-16T07:42:00;-3.30;99.90
32612;DHT22;19030;49.478;8.986;2024-01-16T07:44:01;-3.20;99.90
32612;DHT22;19030;49.478;8.986;2024-01-16T07:46:01;-3.20;99.90
32612;DHT22;19030;49.478;8.986;2024-01-16T07:48:03;-3.10;99.90
32612;DHT22;19030;49.478;8.986;2024-01-16T07:50:04;-3.10;99.90
32612;DHT22;19030;49.478;8.986;2024-01-16T07:52:05;-3.00;99.90
32612;DHT22;19030;49.478;8.986;2024-01-16T07:54:09;-3.00;99.90
32612;DHT22;19030;49.478;8.986;2024-01-16T07:56:10;-2.90;99.90
32612;DHT22;19030;49.478;8.986;2024-01-16T07:58:12;-2.90;99.90
32612;DHT22;19030;49.478;8.986;2024-01-16T08:00:13;-2.80;99.90
32612;DHT22;19030;49.478;8.986;2024-01-16T08:02:13;-2.70;99.90
32612;DHT22;19030;49.478;8.986;2024-01-16T08:04:14;-2.70;99.90
32612;DHT22;19030;49.478;8.986;2024-01-16T08:06:14;-2.60;99.90
32612;DHT22;19030;49.478;8.986;2024-01-16T08:08:15;-2.60;99.90
32612;DHT22;19030;49.478;8.986;2024-01-16T08:10:15;-2.50;99.90
32612;DHT22;19030;49.478;8.986;2024-01-16T08:12:16;-2.40;99.90
32612;DHT22;19030;49.478;8.986;2024-01-16T08:14:16;-2.20;99.90
32612;DHT22;19030;49.478;8.986;2024-01-16T08:16:17;-2.10;99.90
32612;DHT22;19030;49.478;8.986;2024-01-16T08:18:18;-2.00;99.90
32612;DHT22;19030;49.478;8.986;2024-01-16T08:20:18;-2.00;99.90
32612;DHT22;19030;49.478;8.986;2024-01-16T08:22:19;-2.00;99.90
32612;DHT22;19030;49.478;8.986;2024-01-16T08:24:19;-1.90;99.90
32612;DHT22;19030;49.478;8.986;2024-01-16T08:26:20;-1.70;99.90
32612;DHT22;19030;49.478;8.986;2024-01-16T08:28:21;-1.50;99.90
32612;DHT22;19030;49.478;8.986;2024-01-16T08:30:24;-1.40;99.90
32612;DHT22;19030;49.478;8.986;2024-01-16T08:32:25;-1.30;99.90
32612;DHT22;19030;49.478;8.986;2024-01-16T08:34:25;-1.20;99.90
32612;DHT22;19030;49.478;8.986;2024-01-16T08:36:26;-1.20;99.90
32612;DHT22;19030;49.478;8.986;2024-01-16T08:38:26;-1.20;99.90
32612;DHT22;19030;49.478;8.986;2024-01-16T08:40:27;-1.20;99.90
32612;DHT22;19030;49.478;8.986;2024-01-16T08:42:27;-1.10;99.90
32612;DHT22;19030;49.478;8.986;2024-01-16T08:44:28;-1.10;99.90
32612;DHT22;19030;49.478;8.986;2024-01-16T08:46:29;-1.20;99.90
32612;DHT22;19030;49.478;8.986;2024-01-16T08:48:29;-1.20;99.90
32612;DHT22;19030;49.478;8.986;2024-01-16T08:50:30;-1.20;99.90
32612;DHT22;19030;49.478;8.986;2024-01-16T08:52:30;-1.00;99.90
32612;DHT22;19030;49.478;8.986;2024-01-16T08:54:31;-0.90;99.90
32612;DHT22;19030;49.478;8.986;2024-01-16T08:56:32;-0.80;99.90
32612;DHT22;19030;49.478;8.986;2024-01-16T08:58:32;-0.70;99.90
32612;DHT22;19030;49.478;8.986;2024-01-16T09:00:36;-0.70;99.90
32612;DHT22;19030;49.478;8.986;2024-01-16T09:02:37;-0.60;99.90
32612;DHT22;19030;49.478;8.986;2024-01-16T09:04:38;-0.60;99.90
32612;DHT22;19030;49.478;8.986;2024-01-16T09:06:39;-0.50;99.90
32612;DHT22;19030;49.478;8.986;2024-01-16T09:08:39;-0.50;99.90
32612;DHT22;19030;49.478;8.986;2024-01-16T09:10:40;-0.40;99.90
32612;DHT22;19030;49.478;8.986;2024-01-16T09:12:40;-0.50;99.90
32612;DHT22;19030;49.478;8.986;2024-01-16T09:14:41;-0.50;99.90
32612;DHT22;19030;49.478;8.986;2024-01-16T09:16:41;-0.50;99.90
32612;DHT22;19030;49.478;8.986;2024-01-16T09:18:42;-0.40;99.90
32612;DHT22;19030;49.478;8.986;2024-01-16T09:20:43;-0.40;99.90
32612;DHT22;19030;49.478;8.986;2024-01-16T09:22:44;-0.20;99.90
32612;DHT22;19030;49.478;8.986;2024-01-16T09:24:44;-0.20;99.90
32612;DHT22;19030;49.478;8.986;2024-01-16T09:26:45;-0.10;99.90
32612;DHT22;19030;49.478;8.986;2024-01-16T09:28:45;0.00;99.90
32612;DHT22;19030;49.478;8.986;2024-01-16T09:30:46;0.10;99.90
32612;DHT22;19030;49.478;8.986;2024-01-16T09:32:47;0.10;99.90
32612;DHT22;19030;49.478;8.986;2024-01-16T09:34:47;0.10;99.90
32612;DHT22;19030;49.478;8.986;2024-01-16T09:36:48;0.10;99.90
32612;DHT22;19030;49.478;8.986;2024-01-16T09:38:48;0.20;99.90
32612;DHT22;19030;49.478;8.986;2024-01-16T09:40:49;0.20;99.90
32612;DHT22;19030;49.478;8.986;2024-01-16T09:42:51;0.30;99.90
32612;DHT22;19030;49.478;8.986;2024-01-16T09:44:52;0.40;99.90
32612;DHT22;19030;49.478;8.986;2024-01-16T09:46:55;0.40;99.90
32612;DHT22;19030;49.478;8.986;2024-01-16T09:48:56;0.50;99.90
32612;DHT22;19030;49.478;8.986;2024-01-16T09:50:57;0.50;99.90
32612;DHT22;19030;49.478;8.986;2024-01-16T09:52:58;0.50;99.90
32612;DHT22;19030;49.478;8.986;2024-01-16T09:54:58;0.50;99.90
32612;DHT22;19030;49.478;8.986;2024-01-16T09:57:01;0.60;99.90
32612;DHT22;19030;49.478;8.986;2024-01-16T09:59:05;0.60;99.90
32612;DHT22;19030;49.478;8.986;2024-01-16T10:01:06;0.60;99.90
32612;DHT22;19030;49.478;8.986;2024-01-16T10:03:07;0.70;99.90
32612;DHT22;19030;49.478;8.986;2024-01-16T10:05:09;0.90;99.90
32612;DHT22;19030;49.478;8.986;2024-01-16T10:07:12;1.10;99.90
32612;DHT22;19030;49.478;8.986;2024-01-16T10:09:12;1.30;99.90
32612;DHT22;19030;49.478;8.986;2024-01-16T10:11:13;1.50;99.90
32612;DHT22;19030;49.478;8.986;2024-01-16T10:13:14;1.70;99.90
32612;DHT22;19030;49.478;8.986;2024-01-16T10:15:15;2.00;99.90
32612;DHT22;19030;49.478;8.986;2024-01-16T10:17:17;2.30;99.90
32612;DHT22;19030;49.478;8.986;2024-01-16T10:19:18;2.50;99.90
32612;DHT22;19030;49.478;8.986;2024-01-16T10:21:22;2.60;99.90
32612;DHT22;19030;49.478;8.986;2024-01-16T10:23:30;2.60;99.90
32612;DHT22;19030;49.478;8.986;2024-01-16T10:25:31;2.80;99.90
32612;DHT22;19030;49.478;8.986;2024-01-16T10:27:32;3.00;99.90
32612;DHT22;19030;49.478;8.986;2024-01-16T10:29:32;3.10;99.90
32612;DHT22;19030;49.478;8.986;2024-01-16T10:31:33;3.20;99.90
32612;DHT22;19030;49.478;8.986;2024-01-16T10:33:34;3.30;99.90
32612;DHT22;19030;49.478;8.986;2024-01-16T10:35:35;3.40;99.90
32612;DHT22;19030;49.478;8.986;2024-01-16T10:37:52;3.40;99.90
32612;DHT22;19030;49.478;8.986;2024-01-16T10:39:52;3.40;99.90
32612;DHT22;19030;49.478;8.986;2024-01-16T10:41:54;3.50;99.90
32612;DHT22;19030;49.478;8.986;2024-01-16T10:44:04;3.60;99.90
32612;DHT22;19030;49.478;8.986;2024-01-16T10:46:13;3.80;99.90
32612;DHT22;19030;49.478;8.986;2024-01-16T10:48:14;3.90;99.90
32612;DHT22;19030;49.478;8.986;2024-01-16T10:50:16;3.90;99.90
32612;DHT22;19030;49.478;8.986;2024-01-16T10:52:18;3.80;99.90
32612;DHT22;19030;49.478;8.986;2024-01-16T10:54:19;3.90;99.90
32612;DHT22;19030;49.478;8.986;2024-01-16T10:56:21;4.10;99.90
32612;DHT22;19030;49.478;8.986;2024-01-16T10:58:23;4.60;99.90
32612;DHT22;19030;49.478;8.986;2024-01-16T11:00:25;5.20;99.90
32612;DHT22;19030;49.478;8.986;2024-01-16T11:02:35;5.80;99.90
32612;DHT22;19030;49.478;8.986;2024-01-16T11:04:38;6.20;99.90
32612;DHT22;19030;49.478;8.986;2024-01-16T11:06:40;6.20;99.90
32612;DHT22;19030;49.478;8.986;2024-01-16T11:08:42;6.30;99.30
32612;DHT22;19030;49.478;8.986;2024-01-16T11:10:43;6.60;98.60
32612;DHT22;19030;49.478;8.986;2024-01-16T11:12:45;6.80;98.00
32612;DHT22;19030;49.478;8.986;2024-01-16T11:14:49;7.00;97.00
32612;DHT22;19030;49.478;8.986;2024-01-16T11:16:53;7.10;95.10
32612;DHT22;19030;49.478;8.986;2024-01-16T11:18:56;7.00;95.00
32612;DHT22;19030;49.478;8.986;2024-01-16T11:20:57;6.90;94.40
32612;DHT22;19030;49.478;8.986;2024-01-16T11:22:58;6.50;94.50
32612;DHT22;19030;49.478;8.986;2024-01-16T11:25:12;6.20;95.30
32612;DHT22;19030;49.478;8.986;2024-01-16T11:27:23;5.80;95.70
32612;DHT22;19030;49.478;8.986;2024-01-16T11:31:28;5.40;96.90
32612;DHT22;19030;49.478;8.986;2024-01-16T11:35:36;4.80;97.70
32612;DHT22;19030;49.478;8.986;2024-01-16T11:37:44;4.50;98.40
32612;DHT22;19030;49.478;8.986;2024-01-16T11:39:45;4.30;99.30
32612;DHT22;19030;49.478;8.986;2024-01-16T11:41:56;4.30;99.90
32612;DHT22;19030;49.478;8.986;2024-01-16T11:43:57;4.30;99.90
32612;DHT22;19030;49.478;8.986;2024-01-16T11:46:07;4.30;99.90
32612;DHT22;19030;49.478;8.986;2024-01-16T11:48:16;4.30;99.90
32612;DHT22;19030;49.478;8.986;2024-01-16T11:50:27;4.20;99.90
32612;DHT22;19030;49.478;8.986;2024-01-16T11:52:44;4.10;99.90
32612;DHT22;19030;49.478;8.986;2024-01-16T11:54:45;4.10;99.90
32612;DHT22;19030;49.478;8.986;2024-01-16T12:01:38;4.20;99.90
32612;DHT22;19030;49.478;8.986;2024-01-16T12:03:42;4.40;99.90
32612;DHT22;19030;49.478;8.986;2024-01-16T12:05:43;4.50;99.90
32612;DHT22;19030;49.478;8.986;2024-01-16T12:07:51;4.60;99.90
32612;DHT22;19030;49.478;8.986;2024-01-16T12:09:59;4.80;99.90
32612;DHT22;19030;49.478;8.986;2024-01-16T12:12:01;4.90;99.60
32612;DHT22;19030;49.478;8.986;2024-01-16T12:14:02;5.10;99.60
32612;DHT22;19030;49.478;8.986;2024-01-16T12:16:03;5.20;98.00
32612;DHT22;19030;49.478;8.986;2024-01-16T12:18:07;5.30;97.60
32612;DHT22;19030;49.478;8.986;2024-01-16T12:20:18;5.40;97.60
32612;DHT22;19030;49.478;8.986;2024-01-16T12:22:19;5.70;96.90
32612;DHT22;19030;49.478;8.986;2024-01-16T12:24:23;6.10;96.20
32612;DHT22;19030;49.478;8.986;2024-01-16T12:26:23;6.40;95.30
32612;DHT22;19030;49.478;8.986;2024-01-16T12:28:24;6.70;94.30
32612;DHT22;19030;49.478;8.986;2024-01-16T12:30:34;7.00;93.70
32612;DHT22;19030;49.478;8.986;2024-01-16T12:32:35;7.80;92.60
32612;DHT22;19030;49.478;8.986;2024-01-16T12:34:52;8.80;90.90
32612;DHT22;19030;49.478;8.986;2024-01-16T12:36:56;10.50;83.60
32612;DHT22;19030;49.478;8.986;2024-01-16T12:39:04;12.70;72.00
32612;DHT22;19030;49.478;8.986;2024-01-16T12:41:07;15.10;59.50
32612;DHT22;19030;49.478;8.986;2024-01-16T12:43:09;17.40;51.40
32612;DHT22;19030;49.478;8.986;2024-01-16T12:45:10;19.30;43.30
32612;DHT22;19030;49.478;8.986;2024-01-16T12:47:15;20.60;40.30
32612;DHT22;19030;49.478;8.986;2024-01-16T12:49:16;21.60;35.70
32612;DHT22;19030;49.478;8.986;2024-01-16T12:51:22;22.20;34.10
32612;DHT22;19030;49.478;8.986;2024-01-16T12:53:23;21.30;34.10
32612;DHT22;19030;49.478;8.986;2024-01-16T12:55:24;20.20;36.40
32612;DHT22;19030;49.478;8.986;2024-01-16T12:57:25;19.90;36.10
32612;DHT22;19030;49.478;8.986;2024-01-16T12:59:27;20.30;35.70